Time;durP1;ratioP1;P1;durP2;ratioP2;P2;SDS_P1;SDS_P2;PMS_P1;PMS_P2;Temp;Humidity;BMP_temperature;BMP_pressure;BME280_temperature;BME280_humidity;BME280_pressure;Samples;Min_cycle;Max_cycle;Signal;HPM_P1;HPM_P2
2023/08/05 00:00:29;;;;;;;0.40;0.40;;;;;;;15.03;93.62;96792.94;29395;210;63004;-56
2023/08/05 00:01:00;;;;;;;0.40;0.40;;;;;;;15.00;92.79;96799.87;29395;366;63009;-56
2023/08/05 00:01:31;;;;;;;0.40;0.40;;;;;;;15.01;92.86;96795.19;29394;198;64009;-63
2023/08/05 00:02:03;;;;;;;0.50;0.50;;;;;;;15.00;92.90;96793.59;29395;210;63008;-56
2023/08/05 00:02:34;;;;;;;0.40;0.40;;;;;;;15.02;92.62;96794.06;29395;209;63005;-56
2023/08/05 00:03:06;;;;;;;0.50;0.50;;;;;;;15.01;92.62;96790.53;29394;378;64014;-57
2023/08/05 00:03:40;;;;;;;0.40;0.40;;;;;;;15.00;92.89;96793.59;29395;197;63005;-61
2023/08/05 00:04:12;;;;;;;0.50;0.50;;;;;;;15.01;93.13;96792.47;29395;229;63009;-56
2023/08/05 00:04:44;;;;;;;0.40;0.40;;;;;;;15.00;93.13;96788.12;29395;223;63005;-56
2023/08/05 00:05:16;;;;;;;0.50;0.50;;;;;;;15.00;93.04;96793.59;29395;224;63009;-57
2023/08/05 00:05:47;;;;;;;0.40;0.40;;;;;;;14.99;93.40;96797.44;29395;203;63005;-56
2023/08/05 00:06:18;;;;;;;0.50;0.50;;;;;;;15.00;93.15;96791.66;29395;209;63009;-56
2023/08/05 00:06:49;;;;;;;0.50;0.50;;;;;;;15.01;93.39;96789.75;29394;206;64009;-58
2023/08/05 00:07:21;;;;;;;0.50;0.50;;;;;;;15.01;93.32;96795.19;29395;218;63009;-56
2023/08/05 00:07:52;;;;;;;1.17;1.17;;;;;;;15.00;93.41;96793.59;29395;210;63004;-56
2023/08/05 00:08:24;;;;;;;0.45;0.45;;;;;;;15.00;93.04;96793.59;29395;207;63019;-57
2023/08/05 00:08:55;;;;;;;0.40;0.40;;;;;;;14.98;93.74;96795.84;29395;217;63004;-56
2023/08/05 00:09:27;;;;;;;0.43;0.43;;;;;;;14.97;93.63;96791.50;29395;280;63008;-56
2023/08/05 00:09:58;;;;;;;0.50;0.50;;;;;;;14.95;93.63;96796.50;29394;199;64009;-56
2023/08/05 00:10:30;;;;;;;0.50;0.50;;;;;;;14.93;93.41;96801.47;29395;216;63009;-56
2023/08/05 00:11:02;;;;;;;0.50;0.50;;;;;;;14.92;93.95;96797.94;29395;216;63005;-54
2023/08/05 00:11:34;;;;;;;0.50;0.50;;;;;;;14.92;93.33;96802.59;29395;205;63017;-56
2023/08/05 00:12:06;;;;;;;0.50;0.50;;;;;;;14.95;94.01;96801.94;29394;276;64005;-62
2023/08/05 00:12:37;;;;;;;0.50;0.50;;;;;;;14.97;93.82;96799.69;29395;218;63009;-58
2023/08/05 00:13:11;;;;;;;0.50;0.50;;;;;;;14.98;93.41;96806.78;29395;284;63005;-56
2023/08/05 00:13:42;;;;;;;0.50;0.50;;;;;;;14.96;93.28;96809.03;29394;226;64009;-56
2023/08/05 00:14:14;;;;;;;0.47;0.47;;;;;;;14.95;93.71;96801.94;29395;230;63004;-56
2023/08/05 00:14:46;;;;;;;0.50;0.50;;;;;;;14.97;93.85;96805.16;29395;210;63009;-56
2023/08/05 00:15:18;;;;;;;0.50;0.50;;;;;;;14.96;93.95;96809.03;29394;213;64009;-61
2023/08/05 00:15:50;;;;;;;0.50;0.50;;;;;;;14.96;93.89;96803.56;29395;238;63013;-57
2023/08/05 00:16:22;;;;;;;0.40;0.40;;;;;;;14.94;94.37;96809.34;29395;220;63004;-59
2023/08/05 00:16:57;;;;;;;0.50;0.50;;;;;;;14.92;94.03;96808.06;29395;206;63008;-56
2023/08/05 00:17:28;;;;;;;0.50;0.50;;;;;;;14.92;93.98;96805.31;29395;323;63006;-57
2023/08/05 00:18:00;;;;;;;0.50;0.50;;;;;;;14.91;94.29;96811.91;29395;222;63009;-56
2023/08/05 00:18:31;;;;;;;0.50;0.50;;;;;;;14.92;94.57;96808.06;29395;197;63005;-59
2023/08/05 00:19:02;;;;;;;0.50;0.50;;;;;;;14.95;94.20;96801.94;29395;234;63009;-56
2023/08/05 00:19:34;;;;;;;0.45;0.45;;;;;;;14.94;94.50;96801.16;29395;284;63005;-57
2023/08/05 00:20:08;;;;;;;1.05;1.05;;;;;;;14.95;93.56;96812.88;29395;210;63009;-56
2023/08/05 00:20:39;;;;;;;0.50;0.50;;;;;;;14.92;93.77;96797.13;29394;200;64009;-56
2023/08/05 00:21:11;;;;;;;0.50;0.50;;;;;;;14.90;93.81;96804.88;29395;234;63009;-56
2023/08/05 00:21:42;;;;;;;0.50;0.50;;;;;;;14.94;94.46;96805.81;29395;216;63004;-56
2023/08/05 00:22:15;;;;;;;0.50;0.50;;;;;;;14.92;93.88;96797.94;29395;202;63009;-56
2023/08/05 00:22:46;;;;;;;0.50;0.50;;;;;;;14.95;93.85;96801.94;29395;290;63010;-57
2023/08/05 00:23:19;;;;;;;0.50;0.50;;;;;;;14.96;93.73;96804.38;29395;235;63009;-56
2023/08/05 00:23:50;;;;;;;0.50;0.50;;;;;;;14.94;93.58;96801.16;29395;210;63004;-55
2023/08/05 00:24:22;;;;;;;0.52;0.52;;;;;;;14.97;93.68;96794.25;29395;216;63005;-57
2023/08/05 00:24:53;;;;;;;0.50;0.50;;;;;;;14.99;93.62;96802.91;29395;211;63005;-60
2023/08/05 00:25:25;;;;;;;0.50;0.50;;;;;;;14.99;93.68;96803.72;29395;197;63009;-55
2023/08/05 00:25:56;;;;;;;0.50;0.50;;;;;;;14.97;93.92;96803.25;29394;332;64009;-56
2023/08/05 00:26:27;;;;;;;0.62;0.62;;;;;;;14.97;94.19;96805.16;29395;229;63009;-59
2023/08/05 00:26:58;;;;;;;0.50;0.50;;;;;;;14.96;94.19;96798.09;29395;233;63005;-59
2023/08/05 00:27:30;;;;;;;0.45;0.45;;;;;;;14.95;94.33;96810.16;29395;240;63009;-56
2023/08/05 00:28:01;;;;;;;0.43;0.43;;;;;;;14.94;94.25;96811.28;29395;215;63005;-56
2023/08/05 00:28:32;;;;;;;0.60;0.60;;;;;;;14.91;94.29;96809.19;29395;263;63009;-60
2023/08/05 00:29:03;;;;;;;0.50;0.50;;;;;;;14.88;94.70;96807.94;29395;196;63004;-56
2023/08/05 00:29:35;;;;;;;0.50;0.50;;;;;;;14.85;94.61;96802.31;29395;268;63009;-60
2023/08/05 00:30:09;;;;;;;0.50;0.50;;;;;;;14.86;95.25;96807.44;29395;221;63004;-64
2023/08/05 00:30:44;;;;;;;0.50;0.50;;;;;;;14.87;95.03;96805.53;29394;325;64013;-56
2023/08/05 00:31:15;;;;;;;0.57;0.57;;;;;;;14.90;95.21;96811.12;29395;250;63004;-55
2023/08/05 00:31:46;;;;;;;0.50;0.50;;;;;;;14.91;95.09;96803.72;29395;342;63009;-56
2023/08/05 00:32:21;;;;;;;0.50;0.50;;;;;;;14.94;95.22;96803.06;29395;254;63005;-61
2023/08/05 00:32:52;;;;;;;0.50;0.50;;;;;;;14.90;94.63;96813.06;29395;216;63016;-59
2023/08/05 00:33:23;;;;;;;0.50;0.50;;;;;;;14.88;94.91;96807.94;29395;225;63005;-57
2023/08/05 00:33:54;;;;;;;0.40;0.40;;;;;;;14.89;94.90;96806.00;29395;214;63009;-56
2023/08/05 00:34:30;;;;;;;0.50;0.50;;;;;;;14.90;95.33;96804.88;29395;212;63005;-56
2023/08/05 00:35:05;;;;;;;0.40;0.40;;;;;;;14.89;95.08;96808.72;29395;221;63009;-55
2023/08/05 00:35:37;;;;;;;0.50;0.50;;;;;;;14.89;95.21;96809.53;29395;203;63005;-57
2023/08/05 00:36:09;;;;;;;0.50;0.50;;;;;;;14.90;95.22;96805.66;29394;218;64013;-57
2023/08/05 00:36:40;;;;;;;0.40;0.40;;;;;;;14.88;94.84;96807.13;29395;203;63004;-57
2023/08/05 00:37:11;;;;;;;0.40;0.40;;;;;;;14.87;94.99;96800.06;29395;227;63009;-56
2023/08/05 00:37:46;;;;;;;0.50;0.50;;;;;;;14.86;95.50;96799.25;29394;402;64009;-57
2023/08/05 00:38:17;;;;;;;0.40;0.40;;;;;;;14.84;95.57;96796.03;29394;203;64013;-56
2023/08/05 00:38:49;;;;;;;0.50;0.50;;;;;;;14.84;95.45;96789.78;29395;196;63004;-59
2023/08/05 00:39:20;;;;;;;0.50;0.50;;;;;;;14.85;95.79;96783.19;29395;248;63019;-58
2023/08/05 00:39:51;;;;;;;0.50;0.50;;;;;;;14.84;95.33;96785.09;29395;218;63005;-60
2023/08/05 00:40:23;;;;;;;0.40;0.40;;;;;;;14.87;95.68;96794.59;29395;393;63009;-58
2023/08/05 00:40:57;;;;;;;0.40;0.40;;;;;;;14.88;95.52;96785.28;29394;290;64009;-59
2023/08/05 00:41:29;;;;;;;0.50;0.50;;;;;;;14.90;95.52;96788.47;29395;216;63009;-62
2023/08/05 00:42:00;;;;;;;0.50;0.50;;;;;;;14.89;94.32;96782.22;29395;233;63005;-61
2023/08/05 00:42:32;;;;;;;0.40;0.40;;;;;;;14.92;94.48;96784.28;29395;272;63017;-60
2023/08/05 00:43:03;;;;;;;0.55;0.55;;;;;;;14.95;94.21;96782.81;29395;229;63005;-58
2023/08/05 00:43:35;;;;;;;0.50;0.50;;;;;;;14.95;93.57;96780.91;29395;326;63009;-57
2023/08/05 00:44:07;;;;;;;0.50;0.50;;;;;;;14.94;94.00;96784.75;29394;381;64004;-57
2023/08/05 00:44:38;;;;;;;0.50;0.50;;;;;;;14.93;94.53;96787.81;29394;232;64013;-56
2023/08/05 00:45:09;;;;;;;0.57;0.57;;;;;;;14.94;94.29;96786.69;29395;205;63004;-61
2023/08/05 00:45:42;;;;;;;0.50;0.50;;;;;;;14.96;93.40;96792.63;29395;308;63011;-56
2023/08/05 00:46:14;;;;;;;0.50;0.50;;;;;;;14.95;93.57;96782.81;29395;234;63004;-56
2023/08/05 00:46:46;;;;;;;0.50;0.50;;;;;;;14.94;93.72;96781.22;29395;223;63008;-57
2023/08/05 00:47:20;;;;;;;0.50;0.50;;;;;;;14.91;93.30;96777.19;29395;287;63008;-59
2023/08/05 00:47:52;;;;;;;0.50;0.50;;;;;;;14.87;93.17;96779.00;29394;198;64014;-56
2023/08/05 00:48:25;;;;;;;0.40;0.40;;;;;;;14.91;94.24;96785.41;29394;244;64005;-57
2023/08/05 00:48:56;;;;;;;0.45;0.45;;;;;;;14.92;94.11;96780.75;29395;205;63019;-56
2023/08/05 00:49:29;;;;;;;0.50;0.50;;;;;;;14.92;94.27;96775.28;29395;219;63005;-56
2023/08/05 00:50:01;;;;;;;0.50;0.50;;;;;;;14.91;93.70;96774.47;29395;217;63009;-56
2023/08/05 00:50:35;;;;;;;0.50;0.50;;;;;;;14.93;94.25;96771.41;29394;226;64005;-57
2023/08/05 00:51:07;;;;;;;0.50;0.50;;;;;;;14.92;93.77;96769.81;29395;224;63009;-60
2023/08/05 00:51:39;;;;;;;0.50;0.50;;;;;;;14.90;94.15;96772.09;29395;202;63004;-57
2023/08/05 00:52:11;;;;;;;1.50;1.50;;;;;;;14.90;94.09;96774.81;29395;265;63009;-56
2023/08/05 00:52:44;;;;;;;0.32;0.32;;;;;;;14.89;94.00;96767.75;29395;209;63004;-62
2023/08/05 00:53:16;;;;;;;0.40;0.40;;;;;;;14.88;93.78;96760.69;29394;221;64013;-56
2023/08/05 00:53:48;;;;;;;0.70;0.70;;;;;;;14.86;94.01;96771.94;29395;207;63004;-54
2023/08/05 00:54:21;;;;;;;0.43;0.43;;;;;;;14.87;94.66;96764.53;29395;206;63008;-56
2023/08/05 00:54:53;;;;;;;0.50;0.50;;;;;;;14.88;94.79;96772.41;29394;240;64001;-62
2023/08/05 00:55:28;;;;;;;0.50;0.50;;;;;;;14.88;94.46;96777.06;29395;280;63009;-56
2023/08/05 00:55:59;;;;;;;0.50;0.50;;;;;;;14.88;94.46;96757.94;29395;302;63005;-57
2023/08/05 00:56:31;;;;;;;0.40;0.40;;;;;;;14.88;93.88;96763.41;29395;256;63009;-58
2023/08/05 00:57:03;;;;;;;0.47;0.47;;;;;;;14.87;94.35;96767.28;29395;238;63005;-59
2023/08/05 00:57:35;;;;;;;0.50;0.50;;;;;;;14.87;94.41;96761.81;29395;203;63009;-57
2023/08/05 00:58:11;;;;;;;0.47;0.47;;;;;;;14.87;94.71;96762.63;29395;199;63005;-66
2023/08/05 00:58:45;;;;;;;0.45;0.45;;;;;;;14.88;94.26;96768.87;29395;202;63009;-62
2023/08/05 00:59:18;;;;;;;0.45;0.45;;;;;;;14.89;94.25;96762.28;29395;225;63004;-57
2023/08/05 00:59:50;;;;;;;0.50;0.50;;;;;;;14.88;94.19;96758.75;29395;202;63014;-57
2023/08/05 01:00:21;;;;;;;0.40;0.40;;;;;;;14.87;94.35;96756.34;29394;311;64009;-56
2023/08/05 01:00:53;;;;;;;0.50;0.50;;;;;;;14.85;94.35;96753.13;29395;251;63009;-60
2023/08/05 01:01:28;;;;;;;0.50;0.50;;;;;;;14.81;94.53;96757.62;29395;214;63004;-56
2023/08/05 01:02:00;;;;;;;0.50;0.50;;;;;;;14.80;94.97;96750.56;29395;285;63024;-55
2023/08/05 01:02:32;;;;;;;0.50;0.50;;;;;;;14.77;94.81;96748.47;29394;205;64009;-57
2023/08/05 01:03:03;;;;;;;0.40;0.40;;;;;;;14.73;94.69;96757.31;29395;202;63009;-60
2023/08/05 01:03:35;;;;;;;0.40;0.40;;;;;;;14.70;95.21;96755.22;29395;225;63005;-56
2023/08/05 01:04:07;;;;;;;0.43;0.43;;;;;;;14.73;95.23;96757.31;29395;265;63009;-56
2023/08/05 01:04:38;;;;;;;0.47;0.47;;;;;;;14.77;95.51;96751.22;29394;222;64005;-57
2023/08/05 01:05:09;;;;;;;0.45;0.45;;;;;;;14.80;95.13;96758.75;29394;203;64013;-59
2023/08/05 01:05:43;;;;;;;0.50;0.50;;;;;;;14.82;94.88;96764.72;29395;275;63005;-57
2023/08/05 01:06:16;;;;;;;0.50;0.50;;;;;;;14.84;94.87;96757.00;29394;254;64003;-57
2023/08/05 01:06:53;;;;;;;0.50;0.50;;;;;;;14.83;94.97;96760.84;29395;233;63004;-60
2023/08/05 01:07:24;;;;;;;0.50;0.50;;;;;;;14.85;94.69;96755.88;29395;225;63009;-56
2023/08/05 01:07:57;;;;;;;0.40;0.40;;;;;;;14.84;94.70;96757.00;29395;211;63004;-55
2023/08/05 01:08:32;;;;;;;0.50;0.50;;;;;;;14.81;94.78;96760.38;29394;233;64009;-58
2023/08/05 01:09:03;;;;;;;0.50;0.50;;;;;;;14.80;95.05;96764.22;29395;205;63004;-59
2023/08/05 01:09:35;;;;;;;0.40;0.40;;;;;;;14.82;94.13;96760.03;29395;203;63009;-57
2023/08/05 01:10:07;;;;;;;0.50;0.50;;;;;;;14.82;94.48;96759.25;29395;216;63007;-56
2023/08/05 01:10:39;;;;;;;0.40;0.40;;;;;;;14.79;94.39;96754.41;29395;202;63018;-55
2023/08/05 01:11:11;;;;;;;0.50;0.50;;;;;;;14.80;95.22;96756.03;29395;229;63005;-56
2023/08/05 01:11:42;;;;;;;0.50;0.50;;;;;;;14.79;94.58;96759.88;29394;227;64013;-55
2023/08/05 01:12:14;;;;;;;0.50;0.50;;;;;;;14.79;94.48;96759.88;29394;217;64009;-62
2023/08/05 01:12:45;;;;;;;0.50;0.50;;;;;;;14.77;94.52;96754.75;29395;225;63023;-59
2023/08/05 01:13:17;;;;;;;0.50;0.50;;;;;;;14.77;94.97;96756.66;29395;235;63005;-59
2023/08/05 01:13:48;;;;;;;0.40;0.40;;;;;;;14.74;95.09;96758.91;29395;363;63009;-56
2023/08/05 01:14:19;;;;;;;0.40;0.40;;;;;;;14.73;95.05;96761.97;29395;215;63004;-56
2023/08/05 01:14:51;;;;;;;0.43;0.43;;;;;;;14.71;95.05;96759.56;29395;211;63009;-56
2023/08/05 01:15:22;;;;;;;0.50;0.50;;;;;;;14.71;95.87;96765.03;29395;206;63004;-56
2023/08/05 01:15:53;;;;;;;0.43;0.43;;;;;;;14.69;95.44;96764.53;29395;209;63018;-55
2023/08/05 01:16:24;;;;;;;0.50;0.50;;;;;;;14.71;95.15;96775.94;29394;232;64008;-56
2023/08/05 01:16:56;;;;;;;0.50;0.50;;;;;;;14.69;95.22;96767.28;29395;318;63008;-56
2023/08/05 01:17:27;;;;;;;0.50;0.50;;;;;;;14.68;95.44;96771.13;29395;274;63005;-56
2023/08/05 01:18:01;;;;;;;0.50;0.50;;;;;;;14.68;95.67;96771.13;29395;211;63009;-57
2023/08/05 01:18:38;;;;;;;0.40;0.40;;;;;;;14.68;96.15;96771.13;29395;213;63005;-59
2023/08/05 01:19:22;;;;;;;0.40;0.40;;;;;;;14.73;95.46;96773.69;29395;207;63005;-59
2023/08/05 01:19:53;;;;;;;0.50;0.50;;;;;;;14.74;95.34;96775.31;29395;236;63008;-56
2023/08/05 01:20:32;;;;;;;0.62;0.62;;;;;;;14.75;95.05;96774.19;29395;264;63009;-55
2023/08/05 01:21:08;;;;;;;0.47;0.47;;;;;;;14.74;94.60;96774.50;29395;208;63004;-55
2023/08/05 01:21:49;;;;;;;0.50;0.50;;;;;;;14.70;94.40;96773.53;29394;327;64013;-56
2023/08/05 01:22:41;;;;;;;0.50;0.50;;;;;;;14.66;94.53;96773.38;29417;280;63004;-58
2023/08/05 01:23:37;;;;;;;0.50;0.50;;;;;;;14.65;95.00;96771.78;29371;358;64013;-56
2023/08/05 01:24:25;;;;;;;0.50;0.50;;;;;;;14.67;95.94;96774.19;29395;293;63008;-56
2023/08/05 01:25:37;;;;;;;0.50;0.50;;;;;;;14.67;95.86;96774.97;29395;313;63015;-56
2023/08/05 01:26:10;;;;;;;0.50;0.50;;;;;;;14.71;95.39;96781.41;29416;197;64013;-56
2023/08/05 01:26:42;;;;;;;0.40;0.40;;;;;;;14.72;95.36;96780.28;29395;310;63005;-56
2023/08/05 01:27:14;;;;;;;0.50;0.50;;;;;;;14.73;95.89;96779.16;29394;221;64009;-61
2023/08/05 01:27:46;;;;;;;0.40;0.40;;;;;;;14.73;95.47;96775.63;29395;302;63005;-55
2023/08/05 01:28:19;;;;;;;0.50;0.50;;;;;;;14.74;95.92;96780.78;29395;231;63009;-56
2023/08/05 01:28:52;;;;;;;0.50;0.50;;;;;;;14.72;95.57;96776.75;29395;313;63004;-56
2023/08/05 01:29:23;;;;;;;0.50;0.50;;;;;;;14.69;95.00;96783.66;29395;213;63009;-56
2023/08/05 01:29:55;;;;;;;0.40;0.40;;;;;;;14.68;95.36;96784.78;29395;217;63007;-56
2023/08/05 01:30:27;;;;;;;0.40;0.40;;;;;;;14.68;96.08;96776.59;29395;277;63018;-60
2023/08/05 01:31:00;;;;;;;0.40;0.40;;;;;;;14.66;95.69;96789.75;29394;202;64008;-56
2023/08/05 01:31:33;;;;;;;2.30;2.20;;;;;;;14.66;95.81;96786.22;29395;208;63014;-56
2023/08/05 01:32:07;;;;;;;0.40;0.40;;;;;;;14.66;96.30;96784.31;29395;214;63005;-56
2023/08/05 01:32:39;;;;;;;0.50;0.50;;;;;;;14.65;95.75;96777.22;29395;215;63009;-56
2023/08/05 01:33:12;;;;;;;0.40;0.40;;;;;;;14.68;95.47;96779.31;29395;242;63005;-63
2023/08/05 01:33:46;;;;;;;0.50;0.50;;;;;;;14.71;95.66;96775.94;29395;223;63009;-56
2023/08/05 01:34:17;;;;;;;0.50;0.50;;;;;;;14.71;95.37;96770.50;29395;240;63005;-56
2023/08/05 01:34:49;;;;;;;0.50;0.50;;;;;;;14.71;95.19;96769.69;29395;214;63009;-56
2023/08/05 01:35:23;;;;;;;0.50;0.50;;;;;;;14.67;95.05;96769.53;29395;196;63005;-56
2023/08/05 01:35:54;;;;;;;0.50;0.50;;;;;;;14.67;95.37;96771.44;29395;208;63009;-55
2023/08/05 01:36:25;;;;;;;0.50;0.50;;;;;;;14.65;95.58;96774.50;29394;298;64009;-55
2023/08/05 01:36:58;;;;;;;0.50;0.50;;;;;;;14.65;95.99;96771.78;29394;209;64013;-56
2023/08/05 01:37:29;;;;;;;0.40;0.40;;;;;;;14.64;96.00;96770.16;29395;318;63004;-58
2023/08/05 01:38:00;;;;;;;0.50;0.50;;;;;;;14.62;95.64;96777.06;29395;396;63008;-56
2023/08/05 01:38:32;;;;;;;0.40;0.40;;;;;;;14.61;95.63;96776.25;29395;202;63004;-56
2023/08/05 01:39:03;;;;;;;0.40;0.40;;;;;;;14.58;95.78;96771.44;29394;255;64014;-56
2023/08/05 01:39:34;;;;;;;0.40;0.40;;;;;;;14.57;95.98;96769.84;29395;231;63005;-56
2023/08/05 01:40:08;;;;;;;0.50;0.50;;;;;;;14.56;96.16;96770.97;29395;225;63009;-59
2023/08/05 01:40:40;;;;;;;0.50;0.50;;;;;;;14.55;96.54;96771.31;29395;238;63005;-56
2023/08/05 01:41:11;;;;;;;0.40;0.40;;;;;;;14.54;96.80;96775.97;29395;197;63009;-56
2023/08/05 01:41:42;;;;;;;0.50;0.50;;;;;;;14.53;96.39;96781.75;29395;214;63005;-57
2023/08/05 01:42:13;;;;;;;0.40;0.40;;;;;;;14.51;96.40;96771.16;29395;204;63009;-56
2023/08/05 01:42:45;;;;;;;0.55;0.55;;;;;;;14.52;96.64;96780.94;29394;219;64009;-56
2023/08/05 01:43:16;;;;;;;0.40;0.40;;;;;;;14.51;97.27;96779.34;29395;261;63009;-56
2023/08/05 01:43:47;;;;;;;0.47;0.47;;;;;;;14.52;97.24;96772.75;29395;202;63004;-56
2023/08/05 01:44:18;;;;;;;0.50;0.50;;;;;;;14.52;97.61;96783.69;29395;305;63009;-56
2023/08/05 01:44:50;;;;;;;0.50;0.50;;;;;;;14.51;97.63;96775.81;29394;203;64009;-56
2023/08/05 01:45:21;;;;;;;0.43;0.43;;;;;;;14.51;97.42;96790.25;29395;235;63009;-55
2023/08/05 01:45:55;;;;;;;0.50;0.50;;;;;;;14.48;97.21;96782.69;29395;275;63004;-56
2023/08/05 01:46:29;;;;;;;0.50;0.50;;;;;;;14.48;96.70;96784.63;29395;206;63009;-56
2023/08/05 01:47:00;;;;;;;0.50;0.50;;;;;;;14.46;96.72;96789.59;29395;224;63005;-55
2023/08/05 01:47:31;;;;;;;0.50;0.50;;;;;;;14.46;96.76;96790.41;29394;202;64014;-56
2023/08/05 01:48:04;;;;;;;0.50;0.50;;;;;;;14.46;97.54;96784.94;29394;326;64009;-56
2023/08/05 01:48:36;;;;;;;0.50;0.50;;;;;;;14.46;97.14;96790.41;29395;203;63009;-57
2023/08/05 01:49:07;;;;;;;0.50;0.50;;;;;;;14.46;97.24;96790.41;29395;241;63005;-56
2023/08/05 01:49:38;;;;;;;0.40;0.40;;;;;;;14.47;97.37;96792.00;29395;274;63016;-56
2023/08/05 01:50:10;;;;;;;0.50;0.50;;;;;;;14.47;97.64;96786.56;29394;352;64009;-55
2023/08/05 01:50:41;;;;;;;0.40;0.40;;;;;;;14.48;97.81;96784.63;29395;226;63009;-56
2023/08/05 01:51:12;;;;;;;0.40;0.40;;;;;;;14.50;97.98;96777.72;29395;225;63004;-59
2023/08/05 01:51:43;;;;;;;0.45;0.45;;;;;;;14.53;97.99;96776.28;29395;219;63009;-56
2023/08/05 01:52:15;;;;;;;0.45;0.45;;;;;;;14.53;97.56;96785.28;29395;231;63004;-55
2023/08/05 01:52:46;;;;;;;0.50;0.50;;;;;;;14.54;97.23;96775.97;29395;203;63009;-56
2023/08/05 01:53:17;;;;;;;0.43;0.43;;;;;;;14.53;97.09;96774.34;29394;206;64008;-55
2023/08/05 01:53:49;;;;;;;0.40;0.40;;;;;;;14.55;97.48;96774.03;29395;223;63008;-56
2023/08/05 01:54:20;;;;;;;0.40;0.40;;;;;;;14.58;97.49;96776.09;29395;234;63005;-57
2023/08/05 01:54:51;;;;;;;0.40;0.40;;;;;;;14.60;96.95;96773.84;29395;253;63009;-56
2023/08/05 01:55:23;;;;;;;0.40;0.40;;;;;;;14.60;96.29;96774.66;29395;223;63005;-57
2023/08/05 01:55:54;;;;;;;0.73;0.73;;;;;;;14.63;96.27;96768.56;29395;238;63027;-56
2023/08/05 01:56:27;;;;;;;0.43;0.43;;;;;;;14.62;95.90;96777.87;29395;306;63005;-56
2023/08/05 01:56:58;;;;;;;0.40;0.40;;;;;;;14.58;95.54;96768.72;29395;253;63009;-55
2023/08/05 01:57:29;;;;;;;0.40;0.40;;;;;;;14.56;95.63;96773.69;29395;225;63005;-55
2023/08/05 01:58:00;;;;;;;0.50;0.50;;;;;;;14.54;95.87;96770.50;29394;302;64013;-55
2023/08/05 01:58:32;;;;;;;0.50;0.50;;;;;;;14.56;96.17;96772.88;29395;197;63004;-56
2023/08/05 01:59:03;;;;;;;0.77;0.77;;;;;;;14.56;96.25;96768.22;29395;208;63009;-55
2023/08/05 01:59:34;;;;;;;0.40;0.40;;;;;;;14.57;96.30;96761.66;29394;199;64009;-56
2023/08/05 02:00:09;;;;;;;0.50;0.50;;;;;;;14.55;96.22;96766.66;29395;212;63004;-54
2023/08/05 02:00:41;;;;;;;0.50;0.50;;;;;;;14.53;96.23;96757.97;29395;210;63004;-55
2023/08/05 02:01:12;;;;;;;0.50;0.50;;;;;;;14.54;96.55;96758.78;29395;210;63008;-56
2023/08/05 02:01:47;;;;;;;0.50;0.50;;;;;;;14.54;96.76;96756.84;29395;276;63005;-54
2023/08/05 02:02:19;;;;;;;0.50;0.50;;;;;;;14.54;96.73;96758.78;29395;215;63009;-54
2023/08/05 02:02:50;;;;;;;0.50;0.50;;;;;;;14.53;96.88;96757.97;29394;199;64009;-56
2023/08/05 02:03:21;;;;;;;0.50;0.50;;;;;;;14.55;96.71;96758.47;29395;203;63009;-56
2023/08/05 02:03:52;;;;;;;0.40;0.40;;;;;;;14.55;96.76;96755.72;29395;216;63005;-56
2023/08/05 02:04:23;;;;;;;0.50;0.50;;;;;;;14.54;97.11;96756.84;29395;203;63009;-56
2023/08/05 02:04:55;;;;;;;0.50;0.50;;;;;;;14.58;97.09;96755.06;29395;402;63005;-56
2023/08/05 02:05:26;;;;;;;0.45;0.45;;;;;;;14.58;96.79;96755.06;29395;216;63009;-56
2023/08/05 02:05:57;;;;;;;0.50;0.50;;;;;;;14.56;96.93;96754.56;29395;302;63004;-56
2023/08/05 02:06:29;;;;;;;0.62;0.62;;;;;;;14.56;96.92;96751.84;29394;206;64013;-56
2023/08/05 02:07:00;;;;;;;0.40;0.40;;;;;;;14.57;96.49;96748.00;29395;302;63004;-55
2023/08/05 02:07:32;;;;;;;0.50;0.50;;;;;;;14.57;96.61;96749.91;29395;200;63016;-55
2023/08/05 02:09:12;;;;;;;0.48;0.48;;;;;;;14.55;95.75;96747.53;88174;202;64004;-56
2023/08/05 02:09:43;;;;;;;0.50;0.50;;;;;;;14.57;96.39;96752.66;29394;400;64009;-59
2023/08/05 02:10:15;;;;;;;0.43;0.43;;;;;;;14.58;95.67;96755.06;29395;219;63005;-55
2023/08/05 02:10:47;;;;;;;0.50;0.50;;;;;;;14.56;95.38;96751.84;29395;254;63009;-55
2023/08/05 02:11:18;;;;;;;0.50;0.50;;;;;;;14.57;96.05;96753.44;29394;245;64009;-60
2023/08/05 02:11:53;;;;;;;0.50;0.50;;;;;;;14.56;95.91;96748.31;29395;255;63009;-56
2023/08/05 02:12:25;;;;;;;0.50;0.50;;;;;;;14.56;96.09;96751.84;29395;221;63004;-55
2023/08/05 02:13:00;;;;;;;0.50;0.50;;;;;;;14.57;96.14;96758.09;29395;307;63009;-61
2023/08/05 02:13:31;;;;;;;0.50;0.50;;;;;;;14.60;95.77;96755.53;29395;222;63004;-55
2023/08/05 02:14:03;;;;;;;0.68;0.68;;;;;;;14.64;95.72;96753.78;29395;298;63009;-61
2023/08/05 02:14:34;;;;;;;0.50;0.50;;;;;;;14.65;95.34;96758.12;29395;208;63004;-55
2023/08/05 02:15:07;;;;;;;0.50;0.50;;;;;;;14.62;95.01;96761.50;29394;207;64013;-55
2023/08/05 02:15:38;;;;;;;0.50;0.50;;;;;;;14.59;95.18;96750.41;29395;226;63005;-56
2023/08/05 02:16:10;;;;;;;0.50;0.50;;;;;;;14.58;95.36;96754.25;29395;223;63009;-59
2023/08/05 02:16:42;;;;;;;0.50;0.50;;;;;;;14.56;95.69;96756.50;29395;215;63005;-56
2023/08/05 02:17:13;;;;;;;0.50;0.50;;;;;;;14.56;96.26;96743.66;29395;198;63009;-56
2023/08/05 02:17:44;;;;;;;0.45;0.45;;;;;;;14.55;96.50;96752.19;29395;222;63005;-57
2023/08/05 02:18:19;;;;;;;0.50;0.50;;;;;;;14.54;95.82;96754.13;29395;227;63009;-55
2023/08/05 02:18:51;;;;;;;0.50;0.50;;;;;;;14.51;95.96;96751.22;29395;215;63005;-56
2023/08/05 02:19:22;;;;;;;0.50;0.50;;;;;;;14.53;95.92;96751.72;29395;214;63009;-58
2023/08/05 02:19:54;;;;;;;0.50;0.50;;;;;;;14.54;96.33;96748.66;29394;226;64009;-56
2023/08/05 02:20:25;;;;;;;0.40;0.40;;;;;;;14.53;95.96;96757.97;29395;215;63009;-55
2023/08/05 02:20:56;;;;;;;0.50;0.50;;;;;;;14.56;95.87;96745.59;29395;298;63004;-60
2023/08/05 02:21:27;;;;;;;0.50;0.50;;;;;;;14.60;95.39;96750.09;29395;365;63004;-56
2023/08/05 02:21:59;;;;;;;0.50;0.50;;;;;;;14.58;95.22;96749.59;29394;217;64008;-56
2023/08/05 02:22:30;;;;;;;0.50;0.50;;;;;;;14.54;95.05;96745.94;29395;265;63008;-60
2023/08/05 02:23:01;;;;;;;0.50;0.50;;;;;;;14.52;95.41;96745.44;29395;202;63005;-56
2023/08/05 02:23:32;;;;;;;0.70;0.70;;;;;;;14.50;95.58;96747.69;29395;251;63009;-55
2023/08/05 02:24:09;;;;;;;0.40;0.40;;;;;;;14.44;95.41;96743.50;29395;212;63005;-55
2023/08/05 02:24:41;;;;;;;0.50;0.50;;;;;;;14.45;96.35;96744.31;29395;230;63009;-56
2023/08/05 02:25:12;;;;;;;0.50;0.50;;;;;;;14.45;96.88;96747.06;29394;230;64009;-56
2023/08/05 02:25:43;;;;;;;0.40;0.40;;;;;;;14.45;96.74;96742.41;29395;231;63020;-55
2023/08/05 02:26:16;;;;;;;0.50;0.50;;;;;;;14.44;96.71;96742.72;29395;197;63007;-61
2023/08/05 02:26:49;;;;;;;0.50;0.50;;;;;;;14.44;96.79;96743.50;29395;216;63009;-58
2023/08/05 02:27:21;;;;;;;0.50;0.50;;;;;;;14.40;96.32;96739.78;29394;321;64009;-58
2023/08/05 02:27:53;;;;;;;0.50;0.50;;;;;;;14.39;96.33;96735.44;29395;203;63015;-59
2023/08/05 02:28:24;;;;;;;0.50;0.50;;;;;;;14.40;97.18;96742.50;29395;218;63004;-54
2023/08/05 02:28:56;;;;;;;0.50;0.50;;;;;;;14.40;97.10;96739.78;29395;220;63009;-59
2023/08/05 02:29:27;;;;;;;1.02;1.02;;;;;;;14.44;97.02;96737.25;29395;328;63004;-57
2023/08/05 02:29:58;;;;;;;0.40;0.40;;;;;;;14.45;96.94;96727.94;29394;199;64013;-56
2023/08/05 02:30:30;;;;;;;0.50;0.50;;;;;;;14.48;96.87;96736.28;29394;255;64009;-56
2023/08/05 02:31:03;;;;;;;0.50;0.50;;;;;;;14.45;96.59;96728.75;29395;233;63009;-59
2023/08/05 02:31:34;;;;;;;0.50;0.50;;;;;;;14.44;96.65;96727.12;29395;221;63005;-60
2023/08/05 02:32:06;;;;;;;0.40;0.40;;;;;;;14.43;96.34;96725.53;29394;221;64013;-56
2023/08/05 02:32:37;;;;;;;0.40;0.40;;;;;;;14.40;96.50;96721.47;29395;264;63005;-60
2023/08/05 02:33:08;;;;;;;0.40;0.40;;;;;;;14.40;96.74;96726.13;29395;228;63009;-56
2023/08/05 02:33:40;;;;;;;0.50;0.50;;;;;;;14.38;96.62;96720.19;29395;249;63005;-59
2023/08/05 02:34:11;;;;;;;0.50;0.50;;;;;;;14.37;96.86;96726.78;29395;206;63009;-59
2023/08/05 02:34:43;;;;;;;0.50;0.50;;;;;;;14.36;97.09;96719.72;29394;236;64023;-56
2023/08/05 02:35:14;;;;;;;0.40;0.40;;;;;;;14.38;97.10;96718.28;29395;217;63009;-56
2023/08/05 02:35:46;;;;;;;0.50;0.50;;;;;;;14.37;97.15;96715.87;29395;282;63004;-56